De Witt, Iowa
Current Conditions -  °F | °C
As of 5:55 PM on Wednesday 26 Nov 2014 (Local Time) from KCWI Reporting Station
Overcast Overcast  
Wind Chill: 18°   Ceiling: 1700
Heat Index: 27°   Visibility: 8mi
Dew Point: 19°   Wind: 8mph
Humidity: 74%   Direction: 30°NNE
Pressure: 30.18"   Gusts: NA
Location:  41.82°N, 90.54°W
Report Text: KCWI 262355Z AUTO 03007KT 8SM OVC017 M03/M07 A3018 RMK AO1 11020 21030 410201130 52024
Loading
Personal Weather Stations






























Interactive Weather Map New forecast layout! Learn more

10-Day Weather Forecast

Advertisements
Track Severe Weather on mobile